Warnow Moon — A8VX3 — position and weather

sailwx.info

Track history (hours):
 
Tides and Currents Weather Stations Pressure Air Temp Water Temp Dewpoint Dewpoint Depression Visibility Wind Speed Wind Dir Waves Ship Positions

Warnow Moon

Last reported at 2015-May-04 17:18 UTC. Time now 2015-May-05 20:21 UTC.
Position N 38°02' W 076°13'.

Length 180 m; draft 7.4 m.

Type: Cargo ship. MMSI: 636016909.

Date/timePositionNaut miles runAvg speedWind from/ knotsBaromVisibWave heightAir tempDewpointWater temp
2015-May-04 17:18N 38°02' W 076°13'912.1
2015-May-04 16:31N 38°11' W 076°15'3912.3
2015-May-04 13:22N 38°49' W 076°25'1012.1
2015-May-04 12:33N 38°59' W 076°23'1111.1
2015-May-04 11:33N 39°10' W 076°25'9 8.7
2015-May-04 10:31N 39°16' W 076°34'0 0.1
2015-May-04 09:28N 39°16' W 076°34'0 0.0
2015-May-04 06:31N 39°16' W 076°34'0 0.0
2015-May-04 05:31N 39°16' W 076°34'0 0.0
2015-May-04 04:07N 39°16' W 076°34'0 0.0
2015-May-04 03:31N 39°16' W 076°34'0 0.0
2015-May-04 02:31N 39°16' W 076°34'0 0.0
2015-May-03 16:07N 39°16' W 076°34'0 0.0
2015-May-03 14:25N 39°16' W 076°34'0 0.0
2015-May-03 13:31N 39°16' W 076°34'0 0.0
2015-May-03 12:25N 39°16' W 076°34'0 0.0
2015-May-03 11:28N 39°16' W 076°34'0 0.0
2015-May-03 09:04N 39°16' W 076°34'0 0.0
2015-May-03 08:31N 39°16' W 076°34'0 0.0
2015-May-03 07:28N 39°16' W 076°34'0 0.0
2015-May-03 06:10N 39°16' W 076°34'0 0.0
2015-May-03 05:22N 39°16' W 076°34'0 0.0
2015-May-03 04:22N 39°16' W 076°34'0 0.0
2015-May-03 03:28N 39°16' W 076°34'0 0.0
2015-May-03 02:28N 39°16' W 076°34'0 0.0
2015-May-03 01:10N 39°16' W 076°34'0 0.0
2015-May-02 17:28N 39°16' W 076°34'0 0.0
2015-May-02 16:22N 39°16' W 076°34'0 0.0
2015-May-02 11:04N 39°16' W 076°34'0 0.0
2015-May-02 08:31N 39°16' W 076°34'0 0.0
2015-May-02 07:28N 39°16' W 076°34'0 0.0
2015-May-02 06:20N 39°16' W 076°34'3 4.3
2015-May-02 05:33N 39°13' W 076°32'10 8.9
2015-May-02 04:27N 39°05' W 076°24'1011.4
2015-May-02 03:32N 38°55' W 076°24'  
2015-Apr-28 18:33N 26°19' W 079°23'1615.6
2015-Apr-28 17:33N 26°04' W 079°26'213 6.5
2015-Apr-27 08:33N 26°35' W 083°21'1212.2
2015-Apr-27 07:33N 26°47' W 083°21'1212.1
2015-Apr-27 06:33N 26°59' W 083°21'6010.0
2015-Apr-27 00:33N 27°42' W 082°33'1110.6
2015-Apr-26 23:33N 27°51' W 082°27'5 4.5
2015-Apr-26 22:32N 27°55' W 082°25'0 0.0
2015-Apr-26 21:32N 27°55' W 082°25'0 0.0
2015-Apr-26 20:31N 27°55' W 082°25'0 0.0
2015-Apr-26 19:31N 27°55' W 082°25'0 0.0
2015-Apr-26 18:32N 27°55' W 082°25'0 0.0
2015-Apr-26 17:31N 27°55' W 082°25'0 0.0
2015-Apr-26 16:31N 27°55' W 082°25'0 0.0
2015-Apr-26 15:31N 27°55' W 082°25'0 0.0
2015-Apr-26 14:29N 27°55' W 082°25'0 0.3
2015-Apr-26 13:28N 27°55' W 082°26'0 0.0
2015-Apr-26 12:32N 27°55' W 082°26'0 0.0
2015-Apr-26 11:31N 27°55' W 082°26'0 0.0
2015-Apr-26 10:31N 27°55' W 082°26'0 0.0
2015-Apr-26 09:32N 27°55' W 082°26'0 0.0
2015-Apr-26 08:31N 27°55' W 082°26'0 0.0
2015-Apr-26 07:32N 27°55' W 082°26'0 0.0
2015-Apr-26 06:32N 27°55' W 082°26'0 0.0
2015-Apr-26 05:31N 27°55' W 082°26'0 0.0
2015-Apr-26 04:31N 27°55' W 082°26'0 0.0
2015-Apr-26 03:32N 27°55' W 082°26'0 0.0
2015-Apr-26 02:32N 27°55' W 082°26'0 0.0
2015-Apr-26 01:31N 27°55' W 082°26'0 0.0
2015-Apr-26 00:31N 27°55' W 082°26'0 0.0
2015-Apr-25 23:31N 27°55' W 082°26'0 0.0
2015-Apr-25 22:32N 27°55' W 082°26'0 0.0
2015-Apr-25 21:32N 27°55' W 082°26'0 0.0
2015-Apr-25 20:31N 27°55' W 082°26'0 0.0
2015-Apr-25 19:32N 27°55' W 082°26'0 0.0
2015-Apr-25 18:31N 27°55' W 082°26'0 0.0
2015-Apr-25 17:31N 27°55' W 082°26'0 0.0
2015-Apr-25 16:31N 27°55' W 082°26'0 0.0
2015-Apr-25 15:31N 27°55' W 082°26'0 0.0
2015-Apr-25 14:32N 27°55' W 082°26'0 0.0
2015-Apr-25 13:31N 27°55' W 082°26'0 0.0
2015-Apr-25 12:32N 27°55' W 082°26'0 0.3
2015-Apr-25 11:33N 27°55' W 082°26'8 8.0
2015-Apr-25 10:33N 27°48' W 082°30'1612.1
2015-Apr-25 09:14N 27°36' W 082°43'912.0
2015-Apr-25 08:28N 27°36' W 082°53'  
Track history (hours):
 
Tides and Currents Weather Stations Pressure Air Temp Water Temp Dewpoint Dewpoint Depression Visibility Wind Speed Wind Dir Waves Ship Positions

Warnow Moon

Last reported at 2015-May-04 17:18 UTC. Time now 2015-May-05 20:21 UTC.
Position N 38°02' W 076°13'.

Length 180 m; draft 7.4 m.

Type: Cargo ship. MMSI: 636016909.

Date/timePositionNaut miles runAvg speedWind from/ knotsBaromVisibWave heightAir tempDewpointWater temp
2015-May-04 17:18N 38°02' W 076°13'912.1
2015-May-04 16:31N 38°11' W 076°15'3912.3
2015-May-04 13:22N 38°49' W 076°25'1012.1
2015-May-04 12:33N 38°59' W 076°23'1111.1
2015-May-04 11:33N 39°10' W 076°25'9 8.7
2015-May-04 10:31N 39°16' W 076°34'0 0.1
2015-May-04 09:28N 39°16' W 076°34'0 0.0
2015-May-04 06:31N 39°16' W 076°34'0 0.0
2015-May-04 05:31N 39°16' W 076°34'0 0.0
2015-May-04 04:07N 39°16' W 076°34'0 0.0
2015-May-04 03:31N 39°16' W 076°34'0 0.0
2015-May-04 02:31N 39°16' W 076°34'0 0.0
2015-May-03 16:07N 39°16' W 076°34'0 0.0
2015-May-03 14:25N 39°16' W 076°34'0 0.0
2015-May-03 13:31N 39°16' W 076°34'0 0.0
2015-May-03 12:25N 39°16' W 076°34'0 0.0
2015-May-03 11:28N 39°16' W 076°34'0 0.0
2015-May-03 09:04N 39°16' W 076°34'0 0.0
2015-May-03 08:31N 39°16' W 076°34'0 0.0
2015-May-03 07:28N 39°16' W 076°34'0 0.0
2015-May-03 06:10N 39°16' W 076°34'0 0.0
2015-May-03 05:22N 39°16' W 076°34'0 0.0
2015-May-03 04:22N 39°16' W 076°34'0 0.0
2015-May-03 03:28N 39°16' W 076°34'0 0.0
2015-May-03 02:28N 39°16' W 076°34'0 0.0
2015-May-03 01:10N 39°16' W 076°34'0 0.0
2015-May-02 17:28N 39°16' W 076°34'0 0.0
2015-May-02 16:22N 39°16' W 076°34'0 0.0
2015-May-02 11:04N 39°16' W 076°34'0 0.0
2015-May-02 08:31N 39°16' W 076°34'0 0.0
2015-May-02 07:28N 39°16' W 076°34'0 0.0
2015-May-02 06:20N 39°16' W 076°34'3 4.3
2015-May-02 05:33N 39°13' W 076°32'10 8.9
2015-May-02 04:27N 39°05' W 076°24'1011.4
2015-May-02 03:32N 38°55' W 076°24'  
2015-Apr-28 18:33N 26°19' W 079°23'1615.6
2015-Apr-28 17:33N 26°04' W 079°26'213 6.5
2015-Apr-27 08:33N 26°35' W 083°21'1212.2
2015-Apr-27 07:33N 26°47' W 083°21'1212.1
2015-Apr-27 06:33N 26°59' W 083°21'6010.0
2015-Apr-27 00:33N 27°42' W 082°33'1110.6
2015-Apr-26 23:33N 27°51' W 082°27'5 4.5
2015-Apr-26 22:32N 27°55' W 082°25'0 0.0
2015-Apr-26 21:32N 27°55' W 082°25'0 0.0
2015-Apr-26 20:31N 27°55' W 082°25'0 0.0
2015-Apr-26 19:31N 27°55' W 082°25'0 0.0
2015-Apr-26 18:32N 27°55' W 082°25'0 0.0
2015-Apr-26 17:31N 27°55' W 082°25'0 0.0
2015-Apr-26 16:31N 27°55' W 082°25'0 0.0
2015-Apr-26 15:31N 27°55' W 082°25'0 0.0
2015-Apr-26 14:29N 27°55' W 082°25'0 0.3
2015-Apr-26 13:28N 27°55' W 082°26'0 0.0
2015-Apr-26 12:32N 27°55' W 082°26'0 0.0
2015-Apr-26 11:31N 27°55' W 082°26'0 0.0
2015-Apr-26 10:31N 27°55' W 082°26'0 0.0
2015-Apr-26 09:32N 27°55' W 082°26'0 0.0
2015-Apr-26 08:31N 27°55' W 082°26'0 0.0
2015-Apr-26 07:32N 27°55' W 082°26'0 0.0
2015-Apr-26 06:32N 27°55' W 082°26'0 0.0
2015-Apr-26 05:31N 27°55' W 082°26'0 0.0
2015-Apr-26 04:31N 27°55' W 082°26'0 0.0
2015-Apr-26 03:32N 27°55' W 082°26'0 0.0
2015-Apr-26 02:32N 27°55' W 082°26'0 0.0
2015-Apr-26 01:31N 27°55' W 082°26'0 0.0
2015-Apr-26 00:31N 27°55' W 082°26'0 0.0
2015-Apr-25 23:31N 27°55' W 082°26'0 0.0
2015-Apr-25 22:32N 27°55' W 082°26'0 0.0
2015-Apr-25 21:32N 27°55' W 082°26'0 0.0
2015-Apr-25 20:31N 27°55' W 082°26'0 0.0
2015-Apr-25 19:32N 27°55' W 082°26'0 0.0
2015-Apr-25 18:31N 27°55' W 082°26'0 0.0
2015-Apr-25 17:31N 27°55' W 082°26'0 0.0
2015-Apr-25 16:31N 27°55' W 082°26'0 0.0
2015-Apr-25 15:31N 27°55' W 082°26'0 0.0
2015-Apr-25 14:32N 27°55' W 082°26'0 0.0
2015-Apr-25 13:31N 27°55' W 082°26'0 0.0
2015-Apr-25 12:32N 27°55' W 082°26'0 0.3
2015-Apr-25 11:33N 27°55' W 082°26'8 8.0
2015-Apr-25 10:33N 27°48' W 082°30'1612.1
2015-Apr-25 09:14N 27°36' W 082°43'912.0
2015-Apr-25 08:28N 27°36' W 082°53'  

Dump ship's entire track history